createdAt,value
2023-05-07T00:00:58.523Z,101644.23
2023-05-07T00:01:58.707Z,101642.57
2023-05-07T00:02:59.230Z,101641.31
2023-05-07T00:03:59.753Z,101641.82
2023-05-07T00:05:00.351Z,101641
2023-05-07T00:06:00.329Z,101646.79
2023-05-07T00:07:00.840Z,101647.84
2023-05-07T00:08:01.049Z,101649.2
2023-05-07T00:09:01.534Z,101648.91
2023-05-07T00:10:01.930Z,101650.48
2023-05-07T00:11:02.213Z,101648.59
2023-05-07T00:12:02.770Z,101650.34
2023-05-07T00:13:03.280Z,101649.14
2023-05-07T00:14:03.490Z,101649.66
2023-05-07T00:15:05.329Z,101650.58
2023-05-07T00:16:04.890Z,101649.27
2023-05-07T00:17:04.768Z,101655.13
2023-05-07T00:18:05.163Z,101656.8
2023-05-07T00:19:05.446Z,101656.29
2023-05-07T00:20:07.066Z,101656.54
2023-05-07T00:21:06.320Z,101658.53
2023-05-07T00:22:06.736Z,101659.69
2023-05-07T00:23:06.973Z,101661.5
2023-05-07T00:24:07.643Z,101658.02
2023-05-07T00:25:08.483Z,101658.27
2023-05-07T00:26:08.086Z,101664.52
2023-05-07T00:27:08.606Z,101663.73
2023-05-07T00:28:09.018Z,101660.66
2023-05-07T00:29:09.337Z,101659.84
2023-05-07T00:30:10.743Z,101663.23
2023-05-07T00:31:10.677Z,101662.27
2023-05-07T00:32:10.495Z,101663.38
2023-05-07T00:33:11.025Z,101663.59
2023-05-07T00:34:11.465Z,101665.02
2023-05-07T00:35:12.346Z,101664.25
2023-05-07T00:36:12.253Z,101665.12
2023-05-07T00:37:12.507Z,101664.98
2023-05-07T00:38:12.994Z,101667.16
2023-05-07T00:39:13.398Z,101670.57
2023-05-07T00:40:14.102Z,101666
2023-05-07T00:41:14.033Z,101668.54
2023-05-07T00:42:14.533Z,101666.23
2023-05-07T00:43:14.877Z,101670.98
2023-05-07T00:44:15.373Z,101665.94
2023-05-07T00:45:16.092Z,101664.26
2023-05-07T00:46:16.242Z,101666.55
2023-05-07T00:47:17.445Z,101667.62
2023-05-07T00:48:17.199Z,101670.56
2023-05-07T00:49:17.560Z,101666.24
2023-05-07T00:50:17.782Z,101666.59
2023-05-07T00:51:19.152Z,101665.64
2023-05-07T00:52:20.970Z,101664.38
2023-05-07T00:53:18.764Z,101668.23
2023-05-07T00:54:19.335Z,101667.25
2023-05-07T00:55:20.047Z,101666.48
2023-05-07T00:56:20.685Z,101670.67
2023-05-07T00:57:21.816Z,101672.39
2023-05-07T00:58:21.035Z,101673.12
2023-05-07T00:59:21.938Z,101676.16
2023-05-07T01:00:21.639Z,101672.3
2023-05-07T01:01:21.885Z,101675.5
2023-05-07T01:02:22.262Z,101680.48
2023-05-07T01:03:22.675Z,101676.27
2023-05-07T01:04:23.050Z,101679.02
2023-05-07T01:05:25.058Z,101684.31
2023-05-07T01:06:26.576Z,101681.05
2023-05-07T01:07:25.009Z,101682.85
2023-05-07T01:08:26.702Z,101677.27
2023-05-07T01:09:26.339Z,101679.7
2023-05-07T01:10:26.711Z,101680.29
2023-05-07T01:11:27.025Z,101680.63
2023-05-07T01:12:27.456Z,101680.03
2023-05-07T01:13:27.236Z,101682.42
2023-05-07T01:14:27.895Z,101681.97
2023-05-07T01:15:27.869Z,101679.33
2023-05-07T01:16:28.018Z,101678.7
2023-05-07T01:17:28.417Z,101681.12
2023-05-07T01:18:29.519Z,101678.95
2023-05-07T01:19:30.554Z,101681.72
2023-05-07T01:20:29.695Z,101685.08
2023-05-07T01:23:35.309Z,101686.73
2023-05-07T01:24:34.171Z,101689.31
2023-05-07T01:25:34.680Z,101685
2023-05-07T01:26:34.803Z,101689.19
2023-05-07T01:27:35.998Z,101691.14
2023-05-07T01:28:35.536Z,101688.97
2023-05-07T01:29:35.957Z,101689.88
2023-05-07T01:30:38.920Z,101693.03
2023-05-07T01:31:38.539Z,101693.25
2023-05-07T01:33:42.019Z,101690.72
2023-05-07T01:34:40.897Z,101692.91
2023-05-07T01:35:44.890Z,101692.82
2023-05-07T01:36:44.184Z,101692.75
2023-05-07T01:37:43.029Z,101687.43
2023-05-07T01:38:43.494Z,101694.5
2023-05-07T01:39:45.460Z,101688.73
2023-05-07T01:40:46.189Z,101686.28
2023-05-07T01:41:47.635Z,101685.7
2023-05-07T01:42:47.620Z,101683.17
2023-05-07T01:43:48.213Z,101685.24
2023-05-07T01:44:47.714Z,101688.45
2023-05-07T01:45:48.084Z,101688.84
2023-05-07T01:46:49.714Z,101686.44
2023-05-07T01:47:49.177Z,101684.53
2023-05-07T01:48:48.970Z,101683.42
2023-05-07T01:49:49.595Z,101686.2
2023-05-07T01:50:50.405Z,101687.79
2023-05-07T01:51:50.352Z,101680.77
2023-05-07T01:52:52.069Z,101682.53
2023-05-07T01:53:50.742Z,101685.87
2023-05-07T01:54:51.082Z,101682.95
2023-05-07T01:55:51.591Z,101687.14
2023-05-07T01:56:51.802Z,101684.09
2023-05-07T01:57:52.326Z,101685.45
2023-05-07T01:58:53.252Z,101685.23
2023-05-07T01:59:53.778Z,101686.96
2023-05-07T02:00:53.455Z,101686.99
2023-05-07T02:01:53.980Z,101687.8
2023-05-07T02:02:54.255Z,101687.12
2023-05-07T02:03:54.699Z,101688.97
2023-05-07T02:04:55.023Z,101689.75
2023-05-07T02:05:55.336Z,101691.63
2023-05-07T02:06:55.745Z,101691.32
2023-05-07T02:07:56.186Z,101693.41
2023-05-07T02:08:56.383Z,101694.1
2023-05-07T02:09:57.223Z,101690.72
2023-05-07T02:10:57.356Z,101693.39
2023-05-07T02:11:57.623Z,101690.82
2023-05-07T02:12:58.075Z,101692.41
2023-05-07T02:13:58.463Z,101694.06
2023-05-07T02:14:58.685Z,101700.73
2023-05-07T02:15:59.222Z,101696.09
2023-05-07T02:16:59.604Z,101697.41
2023-05-07T02:18:07.591Z,101697.91
2023-05-07T02:19:04.995Z,101697.04
2023-05-07T02:20:06.376Z,101700.59
2023-05-07T02:21:05.784Z,101701.03
2023-05-07T02:22:06.395Z,101701.45
2023-05-07T02:23:06.502Z,101699.82
2023-05-07T02:24:07.391Z,101700.1
2023-05-07T02:25:07.862Z,101696.89
2023-05-07T02:26:07.854Z,101700.77
2023-05-07T02:27:08.091Z,101701.31
2023-05-07T02:28:08.406Z,101701.8
2023-05-07T02:29:08.898Z,101701.7
2023-05-07T02:30:09.973Z,101701.03
2023-05-07T02:31:09.674Z,101701.48
2023-05-07T02:32:10.167Z,101704.88
2023-05-07T02:33:10.390Z,101704.89
2023-05-07T02:34:10.703Z,101708.24
2023-05-07T02:35:11.509Z,101707.2
2023-05-07T02:36:12.878Z,101706.77
2023-05-07T02:37:11.931Z,101710.84
2023-05-07T02:38:12.132Z,101708.36
2023-05-07T02:39:14.098Z,101707.37
2023-05-07T02:40:13.873Z,101708.41
2023-05-07T02:41:13.492Z,101706.87
2023-05-07T02:42:13.914Z,101711.04
2023-05-07T02:43:14.080Z,101710.08
2023-05-07T02:44:14.568Z,101710.89
2023-05-07T02:45:16.086Z,101708.77
2023-05-07T02:46:16.311Z,101711.02
2023-05-07T02:47:16.712Z,101711.09
2023-05-07T02:48:17.015Z,101713.88
2023-05-07T02:49:17.270Z,101715.55
2023-05-07T02:50:17.786Z,101717.17
2023-05-07T02:51:24.023Z,101716.83
2023-05-07T02:52:23.143Z,101719.52
2023-05-07T02:53:24.204Z,101721.76
2023-05-07T02:54:24.380Z,101718.83
2023-05-07T02:55:24.838Z,101720.56
2023-05-07T02:56:27.379Z,101722.34
2023-05-07T02:57:25.673Z,101720.25
2023-05-07T02:58:26.137Z,101720.25
2023-05-07T02:59:26.298Z,101725.98
2023-05-07T03:00:27.424Z,101719.86
2023-05-07T03:01:27.303Z,101724.91
2023-05-07T03:02:27.414Z,101727.02
2023-05-07T03:03:27.973Z,101729.17
2023-05-07T03:04:28.372Z,101728.95
2023-05-07T03:05:28.696Z,101728.77
2023-05-07T03:06:29.048Z,101732.28
2023-05-07T03:07:29.454Z,101731.98
2023-05-07T03:08:30.053Z,101728.22
2023-05-07T03:09:30.267Z,101731.11
2023-05-07T03:10:30.984Z,101730.68
2023-05-07T03:11:31.399Z,101731.14
2023-05-07T03:12:31.781Z,101731.12
2023-05-07T03:13:31.786Z,101734.78
2023-05-07T03:14:32.233Z,101731.63
2023-05-07T03:15:33.498Z,101732.45
2023-05-07T03:16:33.718Z,101732.97
2023-05-07T03:17:34.976Z,101736.82
2023-05-07T03:18:35.255Z,101737.86
2023-05-07T03:19:35.667Z,101737.73
2023-05-07T03:20:36.104Z,101738.86
2023-05-07T03:21:36.378Z,101739.74
2023-05-07T03:22:36.740Z,101739.45
2023-05-07T03:23:37.165Z,101740.16
2023-05-07T03:24:37.482Z,101735.09
2023-05-07T03:25:38.051Z,101735.12
2023-05-07T03:26:39.070Z,101735.34
2023-05-07T03:27:38.780Z,101738.43
2023-05-07T03:28:39.089Z,101740
2023-05-07T03:29:39.408Z,101737.22
2023-05-07T03:30:40.022Z,101738.2
2023-05-07T03:31:40.274Z,101739.83
2023-05-07T03:32:40.786Z,101742.09
2023-05-07T03:33:52.442Z,101743.98
2023-05-07T03:34:44.984Z,101742.08
2023-05-07T03:35:45.586Z,101741.23
2023-05-07T03:36:45.792Z,101743.94
2023-05-07T03:37:46.008Z,101741.81
2023-05-07T03:38:46.518Z,101746.89
2023-05-07T03:39:46.968Z,101745.2
2023-05-07T03:40:47.458Z,101746.69
2023-05-07T03:41:47.713Z,101746.94
2023-05-07T03:42:48.093Z,101747.2
2023-05-07T03:43:48.512Z,101747.12
2023-05-07T03:44:48.807Z,101751.3
2023-05-07T03:45:49.349Z,101748.86
2023-05-07T03:46:49.862Z,101756.88
2023-05-07T03:47:50.095Z,101756.11
2023-05-07T03:48:50.585Z,101754.52
2023-05-07T03:49:50.990Z,101751.81
2023-05-07T03:50:51.199Z,101754.58
2023-05-07T03:51:51.634Z,101758.46
2023-05-07T03:52:52.050Z,101759.75
2023-05-07T03:53:52.409Z,101759.08
2023-05-07T03:54:54.198Z,101758.06
2023-05-07T03:55:53.301Z,101760.9
2023-05-07T03:56:53.712Z,101762.72
2023-05-07T03:57:54.127Z,101764
2023-05-07T03:58:54.593Z,101767.33
2023-05-07T03:59:54.909Z,101769.39
2023-05-07T04:00:55.685Z,101764.94
2023-05-07T04:01:55.839Z,101768.95
2023-05-07T04:02:56.299Z,101769.89
2023-05-07T04:03:57.227Z,101769.22
2023-05-07T04:04:56.933Z,101769.23
2023-05-07T04:05:57.370Z,101772.16
2023-05-07T04:06:57.776Z,101773.3
2023-05-07T04:08:00.042Z,101773.8
2023-05-07T04:08:58.508Z,101774.66
2023-05-07T04:09:58.924Z,101775.53
2023-05-07T04:11:01.248Z,101778.34
2023-05-07T04:11:59.766Z,101780.05
2023-05-07T04:13:00.283Z,101783.73
2023-05-07T04:14:00.587Z,101785.36
2023-05-07T04:15:00.897Z,101779.73
2023-05-07T04:16:04.046Z,101785.53
2023-05-07T04:17:02.093Z,101787.38
2023-05-07T04:18:02.254Z,101790
2023-05-07T04:19:02.498Z,101788.99
2023-05-07T04:20:03.277Z,101791.98
2023-05-07T04:21:03.347Z,101790.28
2023-05-07T04:22:04.008Z,101790.84
2023-05-07T04:23:04.421Z,101789.72
2023-05-07T04:24:05.773Z,101789.34
2023-05-07T04:25:05.785Z,101790.58
2023-05-07T04:26:05.379Z,101793.52
2023-05-07T04:27:06.818Z,101791.59
2023-05-07T04:28:06.316Z,101787.49
2023-05-07T04:29:06.734Z,101787.28
2023-05-07T04:30:08.458Z,101790.62
2023-05-07T04:31:07.766Z,101789.97
2023-05-07T04:32:08.225Z,101791.53
2023-05-07T04:33:08.663Z,101793.39
2023-05-07T04:34:08.713Z,101793.22
2023-05-07T04:35:09.324Z,101790.94
2023-05-07T04:36:09.642Z,101792.52
2023-05-07T04:37:09.914Z,101790.67
2023-05-07T04:38:09.902Z,101792.45
2023-05-07T04:39:10.385Z,101791.2
2023-05-07T04:40:11.458Z,101794.11
2023-05-07T04:41:11.108Z,101794.94
2023-05-07T04:42:16.117Z,101796.02
2023-05-07T04:43:13.678Z,101796.66
2023-05-07T04:44:13.973Z,101797.23
2023-05-07T04:45:14.294Z,101797.44
2023-05-07T04:46:14.660Z,101802.16
2023-05-07T04:47:14.913Z,101801.66
2023-05-07T04:48:15.172Z,101801.77
2023-05-07T04:49:15.456Z,101802.23
2023-05-07T04:50:15.972Z,101801.85
2023-05-07T04:51:16.188Z,101802.06
2023-05-07T04:52:16.707Z,101806.73
2023-05-07T04:53:17.221Z,101806.25
2023-05-07T04:54:17.128Z,101807.31
2023-05-07T04:55:17.840Z,101804.02
2023-05-07T04:56:17.849Z,101805.27
2023-05-07T04:57:18.137Z,101807.28
2023-05-07T04:58:18.695Z,101809.44
2023-05-07T04:59:18.702Z,101810.48
2023-05-07T05:00:19.321Z,101808.86
2023-05-07T05:01:20.247Z,101805.7
2023-05-07T05:02:20.827Z,101807.77
2023-05-07T05:03:20.205Z,101807.7
2023-05-07T05:04:20.674Z,101804.56
2023-05-07T05:05:20.964Z,101807.52
2023-05-07T05:06:21.094Z,101807.38
2023-05-07T05:07:21.514Z,101808.99
2023-05-07T05:08:21.824Z,101808.08
2023-05-07T05:09:21.982Z,101811.25
2023-05-07T05:10:24.668Z,101807.98
2023-05-07T05:11:22.709Z,101813.07
2023-05-07T05:12:23.173Z,101812.03
2023-05-07T05:13:23.657Z,101812.13
2023-05-07T05:14:23.651Z,101812.11
2023-05-07T05:15:24.443Z,101814.92
2023-05-07T05:16:24.591Z,101811.67
2023-05-07T05:17:24.694Z,101812.62
2023-05-07T05:18:25.114Z,101810.05
2023-05-07T05:19:25.818Z,101809.77
2023-05-07T05:20:25.800Z,101811.3
2023-05-07T05:21:26.221Z,101813.81
2023-05-07T05:22:26.386Z,101812.3
2023-05-07T05:23:26.949Z,101814.72
2023-05-07T05:24:27.256Z,101810.34
2023-05-07T05:25:27.497Z,101810.41
2023-05-07T05:26:27.778Z,101810.33
2023-05-07T05:27:28.235Z,101814.03
2023-05-07T05:28:28.720Z,101815.34
2023-05-07T05:29:28.775Z,101810.17
2023-05-07T05:30:29.262Z,101810.05
2023-05-07T05:31:29.724Z,101814.31
2023-05-07T05:32:30.010Z,101808.74
2023-05-07T05:33:30.287Z,101806.48
2023-05-07T05:34:30.718Z,101810.7
2023-05-07T05:35:30.929Z,101815.41
2023-05-07T05:36:31.892Z,101813.67
2023-05-07T05:37:32.296Z,101811.89
2023-05-07T05:38:32.771Z,101808.67
2023-05-07T05:39:33.096Z,101812.36
2023-05-07T05:40:33.264Z,101811.53
2023-05-07T05:41:33.618Z,101814.2
2023-05-07T05:42:33.979Z,101813.38
2023-05-07T05:43:34.492Z,101813.94
2023-05-07T05:44:34.650Z,101816.06
2023-05-07T05:45:35.031Z,101811.94
2023-05-07T05:46:37.382Z,101811.64
2023-05-07T05:47:35.828Z,101816.01
2023-05-07T05:48:36.233Z,101814.87
2023-05-07T05:49:36.439Z,101811.02
2023-05-07T05:50:36.851Z,101815.45
2023-05-07T05:51:37.281Z,101814.8
2023-05-07T05:52:37.478Z,101810.84
2023-05-07T05:53:38.109Z,101812.1
2023-05-07T05:54:38.288Z,101811.62
2023-05-07T05:55:39.089Z,101817.58
2023-05-07T05:56:39.141Z,101813.98
2023-05-07T05:57:39.382Z,101815.15
2023-05-07T05:58:39.865Z,101813.93
2023-05-07T05:59:40.088Z,101811.49
2023-05-07T06:00:40.812Z,101815.02
2023-05-07T06:01:41.380Z,101815.23
2023-05-07T06:02:41.120Z,101815.47
2023-05-07T06:03:41.556Z,101816.3
2023-05-07T06:04:41.999Z,101816.91
2023-05-07T06:05:42.212Z,101814.02
2023-05-07T06:06:42.587Z,101820.72
2023-05-07T06:07:43.001Z,101816.48
2023-05-07T06:08:43.524Z,101819.78
2023-05-07T06:09:43.683Z,101818.95
2023-05-07T06:10:44.147Z,101816.99
2023-05-07T06:11:44.302Z,101820.41
2023-05-07T06:12:45.223Z,101822.66
2023-05-07T06:13:45.215Z,101823.05
2023-05-07T06:14:45.517Z,101822.03
2023-05-07T06:15:45.936Z,101823.05
2023-05-07T06:16:46.376Z,101823.11
2023-05-07T06:17:46.691Z,101824.56
2023-05-07T06:18:47.093Z,101824
2023-05-07T06:19:47.379Z,101824.28
2023-05-07T06:20:47.526Z,101824.91
2023-05-07T06:21:48.128Z,101828.65
2023-05-07T06:22:48.627Z,101825.24
2023-05-07T06:23:48.971Z,101828.53
2023-05-07T06:24:49.209Z,101829.06
2023-05-07T06:25:50.076Z,101827.7
2023-05-07T06:26:50.010Z,101828.48
2023-05-07T06:27:50.211Z,101828
2023-05-07T06:28:51.005Z,101829.66
2023-05-07T06:29:51.138Z,101827.98
2023-05-07T06:30:51.467Z,101826.85
2023-05-07T06:31:51.723Z,101827.4
2023-05-07T06:32:52.412Z,101826.42
2023-05-07T06:33:52.433Z,101826.96
2023-05-07T06:34:52.800Z,101828.36
2023-05-07T06:35:53.190Z,101823.97
2023-05-07T06:36:53.649Z,101828.67
2023-05-07T06:37:53.876Z,101824.58
2023-05-07T06:38:54.270Z,101826.64
2023-05-07T06:39:54.588Z,101825.73
2023-05-07T06:40:55.011Z,101828.64
2023-05-07T06:41:55.520Z,101825.05
2023-05-07T06:42:55.861Z,101823.72
2023-05-07T06:43:56.143Z,101821.88
2023-05-07T06:44:56.688Z,101823.9
2023-05-07T06:45:56.881Z,101828.23
2023-05-07T06:46:57.605Z,101823.02
2023-05-07T06:47:57.786Z,101824.97
2023-05-07T06:48:58.225Z,101822.67
2023-05-07T06:49:58.253Z,101822.99
2023-05-07T06:50:58.970Z,101821.56
2023-05-07T06:51:59.025Z,101822.55
2023-05-07T06:52:59.491Z,101822.89
2023-05-07T06:54:00.006Z,101820.24
2023-05-07T06:55:01.141Z,101821.41
2023-05-07T06:56:00.650Z,101819.42
2023-05-07T06:57:01.050Z,101820.14
2023-05-07T06:58:01.693Z,101823.46
2023-05-07T06:59:03.022Z,101815.47
2023-05-07T07:00:02.309Z,101822.93
2023-05-07T07:01:02.422Z,101815.73
2023-05-07T07:02:03.760Z,101818.55
2023-05-07T07:03:03.354Z,101816.27
2023-05-07T07:04:03.755Z,101815.77
2023-05-07T07:05:04.318Z,101813.62
2023-05-07T07:06:04.938Z,101815.94
2023-05-07T07:07:04.710Z,101820.86
2023-05-07T07:08:05.610Z,101814.73
2023-05-07T07:09:05.454Z,101823.25
2023-05-07T07:10:06.960Z,101818.06
2023-05-07T07:11:06.870Z,101816.77
2023-05-07T07:12:07.180Z,101818.01
2023-05-07T07:13:07.028Z,101816
2023-05-07T07:14:07.398Z,101814.4
2023-05-07T07:15:08.653Z,101815.27
2023-05-07T07:16:08.211Z,101814.25
2023-05-07T07:17:08.475Z,101815.2
2023-05-07T07:18:08.783Z,101814.66
2023-05-07T07:19:09.379Z,101816.62
2023-05-07T07:20:12.086Z,101818.52
2023-05-07T07:21:09.904Z,101820.34
2023-05-07T07:22:10.321Z,101812.52
2023-05-07T07:23:10.582Z,101815.53
2023-05-07T07:24:11.154Z,101812.96
2023-05-07T07:25:11.388Z,101814.55
2023-05-07T07:26:11.688Z,101815.61
2023-05-07T07:27:12.143Z,101821.48
2023-05-07T07:28:12.620Z,101815.67
2023-05-07T07:29:13.739Z,101814.22
2023-05-07T07:30:13.928Z,101817.38
2023-05-07T07:31:14.288Z,101817.28
2023-05-07T07:32:14.210Z,101821.62
2023-05-07T07:33:14.418Z,101816.97
2023-05-07T07:34:14.867Z,101819.92
2023-05-07T07:35:15.241Z,101816.45
2023-05-07T07:36:15.643Z,101817.7
2023-05-07T07:37:16.058Z,101813.95
2023-05-07T07:38:16.372Z,101814.22
2023-05-07T07:39:16.790Z,101814.75
2023-05-07T07:40:17.324Z,101817.54
2023-05-07T07:41:17.400Z,101812.65
2023-05-07T07:42:18.043Z,101815.03
2023-05-07T07:43:18.211Z,101816.19
2023-05-07T07:44:18.659Z,101816.2
2023-05-07T07:45:19.202Z,101820.41
2023-05-07T07:46:19.257Z,101816.96
2023-05-07T07:47:19.746Z,101816.47
2023-05-07T07:48:20.216Z,101815.97
2023-05-07T07:49:20.840Z,101815.65
2023-05-07T07:50:32.212Z,101817.31
2023-05-07T07:51:22.802Z,101816.4
2023-05-07T07:52:23.107Z,101814.66
2023-05-07T07:53:23.379Z,101814.29
2023-05-07T07:54:23.956Z,101815.32
2023-05-07T07:55:24.607Z,101812.19
2023-05-07T07:56:24.900Z,101812.58
2023-05-07T07:57:25.214Z,101812
2023-05-07T07:58:25.404Z,101808.37
2023-05-07T07:59:25.795Z,101809.88
2023-05-07T08:00:26.351Z,101810.75
2023-05-07T08:01:26.667Z,101808.98
2023-05-07T08:02:27.254Z,101811.38
2023-05-07T08:03:27.306Z,101807.57
2023-05-07T08:04:27.852Z,101809.75
2023-05-07T08:05:28.422Z,101811.95
2023-05-07T08:06:28.574Z,101810.72
2023-05-07T08:07:29.024Z,101809.16
2023-05-07T08:08:29.480Z,101812.5
2023-05-07T08:09:29.676Z,101809.33
2023-05-07T08:10:30.190Z,101806.83
2023-05-07T08:11:30.519Z,101813.2
2023-05-07T08:12:30.828Z,101804.19
2023-05-07T08:13:31.356Z,101809.47
2023-05-07T08:14:31.654Z,101804.25
2023-05-07T08:15:32.170Z,101797.73
2023-05-07T08:16:32.379Z,101799.45
2023-05-07T08:17:32.708Z,101800.74
2023-05-07T08:18:33.322Z,101802.59
2023-05-07T08:19:33.642Z,101803.36
2023-05-07T08:20:34.052Z,101806.42
2023-05-07T08:21:34.840Z,101805.05
2023-05-07T08:22:36.243Z,101802.7
2023-05-07T08:23:35.104Z,101806.36
2023-05-07T08:24:35.521Z,101804.25
2023-05-07T08:25:37.527Z,101802.11
2023-05-07T08:26:36.203Z,101801.06
2023-05-07T08:27:36.789Z,101800.11
2023-05-07T08:28:36.990Z,101806.55
2023-05-07T08:29:37.646Z,101803.23
2023-05-07T08:30:37.809Z,101797.77
2023-05-07T08:31:38.319Z,101800.06
2023-05-07T08:32:38.703Z,101799.28
2023-05-07T08:33:38.960Z,101802.92
2023-05-07T08:34:40.086Z,101801.58
2023-05-07T08:35:40.442Z,101796.88
2023-05-07T08:36:40.706Z,101794.7
2023-05-07T08:37:41.457Z,101799.52
2023-05-07T08:38:41.685Z,101797.59
2023-05-07T08:39:41.917Z,101802.37
2023-05-07T08:40:42.332Z,101797.31
2023-05-07T08:43:51.492Z,101798.45
2023-05-07T08:44:52.762Z,101793.66
2023-05-07T08:46:54.624Z,101795.5
2023-05-07T08:48:56.973Z,101793.42
2023-05-07T08:49:57.397Z,101797.12
2023-05-07T08:50:59.343Z,101797.41
2023-05-07T08:51:58.129Z,101796.22
2023-05-07T08:52:58.399Z,101799.41
2023-05-07T08:54:00.387Z,101797.3
2023-05-07T08:55:00.398Z,101798.63
2023-05-07T08:55:59.935Z,101795.22
2023-05-07T08:56:59.857Z,101803.28
2023-05-07T08:58:01.028Z,101796.38
2023-05-07T08:59:00.722Z,101788.86
2023-05-07T09:00:01.252Z,101788.3
2023-05-07T09:03:08.552Z,101790.25
2023-05-07T09:04:08.156Z,101781.06
2023-05-07T09:05:09.384Z,101788.53
2023-05-07T09:06:08.970Z,101784.56
2023-05-07T09:07:09.274Z,101784.27
2023-05-07T09:08:09.584Z,101786.23
2023-05-07T09:09:09.983Z,101782.49
2023-05-07T09:10:11.381Z,101782.53
2023-05-07T09:11:10.728Z,101782.29
2023-05-07T09:12:11.245Z,101784.05
2023-05-07T09:13:13.290Z,101785.81
2023-05-07T09:14:11.880Z,101778.31
2023-05-07T09:15:12.503Z,101784.95
2023-05-07T09:16:13.890Z,101781.7
2023-05-07T09:17:13.227Z,101782.25
2023-05-07T09:18:16.753Z,101781.58
2023-05-07T09:19:14.441Z,101780.94
2023-05-07T09:20:15.260Z,101788.55
2023-05-07T09:22:17.764Z,101782.12
2023-05-07T09:23:18.218Z,101778.22
2023-05-07T09:24:18.493Z,101776.96
2023-05-07T09:26:23.121Z,101780.89
2023-05-07T09:27:21.284Z,101780.23
2023-05-07T09:28:21.803Z,101783.08
2023-05-07T09:29:22.347Z,101782.19
2023-05-07T09:30:22.541Z,101782.05
2023-05-07T09:31:23.356Z,101784.02
2023-05-07T09:32:23.360Z,101786.05
2023-05-07T09:33:28.699Z,101782.31
2023-05-07T09:34:26.044Z,101776.8
2023-05-07T09:35:27.395Z,101775.45
2023-05-07T09:36:28.428Z,101780.3
2023-05-07T09:37:28.459Z,101780.41
2023-05-07T09:38:27.907Z,101778.95
2023-05-07T09:40:32.752Z,101776.57
2023-05-07T09:41:32.229Z,101773.92
2023-05-07T09:42:32.454Z,101771.69
2023-05-07T09:43:34.094Z,101770.49
2023-05-07T09:44:33.738Z,101769.64
2023-05-07T09:45:34.045Z,101770.06
2023-05-07T09:46:37.488Z,101768.23
2023-05-07T09:47:39.936Z,101769.56
2023-05-07T09:48:39.670Z,101767.98
2023-05-07T09:49:40.073Z,101773.84
2023-05-07T09:51:49.915Z,101768.88
2023-05-07T09:52:43.473Z,101765.22
2023-05-07T09:53:44.285Z,101760.65
2023-05-07T09:54:44.305Z,101772.02
2023-05-07T09:55:44.311Z,101766.8
2023-05-07T09:56:44.836Z,101767.66
2023-05-07T09:57:46.273Z,101766.73
2023-05-07T09:58:46.110Z,101764.41
2023-05-07T09:59:47.100Z,101763.16
2023-05-07T10:00:46.611Z,101764.39
2023-05-07T10:01:46.149Z,101764.23
2023-05-07T10:02:48.347Z,101762.81
2023-05-07T10:03:48.109Z,101762.62
2023-05-07T10:04:47.784Z,101763.38
2023-05-07T10:05:48.121Z,101757.89
2023-05-07T10:06:48.860Z,101759.15
2023-05-07T10:07:49.140Z,101759
2023-05-07T10:08:50.073Z,101763.5
2023-05-07T10:09:50.815Z,101759.05
2023-05-07T10:10:50.530Z,101758.45
2023-05-07T10:11:53.224Z,101758.72
2023-05-07T10:12:51.984Z,101754.03
2023-05-07T10:13:53.433Z,101755.81
2023-05-07T10:14:53.946Z,101752.43
2023-05-07T10:15:52.052Z,101751.41
2023-05-07T10:16:53.769Z,101748.66
2023-05-07T10:17:54.568Z,101744.74
2023-05-07T10:18:54.214Z,101747.16
2023-05-07T10:19:55.045Z,101743.05
2023-05-07T10:20:55.636Z,101746.83
2023-05-07T10:23:00.253Z,101745.45
2023-05-07T10:24:07.351Z,101746.92
2023-05-07T10:25:03.664Z,101748.98
2023-05-07T10:26:06.322Z,101749.05
2023-05-07T10:27:09.906Z,101749.41
2023-05-07T10:28:09.688Z,101746.42
2023-05-07T10:33:25.409Z,101744.01
2023-05-07T10:36:28.186Z,101747.7
2023-05-07T10:37:29.120Z,101746.12
2023-05-07T10:38:29.636Z,101749.16
2023-05-07T10:39:29.136Z,101749.23
2023-05-07T10:40:29.661Z,101749.5
2023-05-07T10:41:29.980Z,101749.31
2023-05-07T10:42:30.375Z,101753.45
2023-05-07T10:44:35.515Z,101750.62
2023-05-07T10:45:35.827Z,101748.3
2023-05-07T10:46:36.623Z,101746.42
2023-05-07T10:47:36.837Z,101752.98
2023-05-07T10:50:46.371Z,101748.59
2023-05-07T10:51:43.961Z,101745.76
2023-05-07T10:52:44.439Z,101742.58
2023-05-07T10:53:44.690Z,101741.66
2023-05-07T10:54:45.387Z,101741.31
2023-05-07T10:55:47.369Z,101745.89
2023-05-07T10:56:45.946Z,101735.26
2023-05-07T10:57:46.318Z,101734.43
2023-05-07T10:58:46.702Z,101735.02
2023-05-07T10:59:47.183Z,101732.61
2023-05-07T11:00:47.803Z,101731.19
2023-05-07T11:08:03.849Z,101739.22
2023-05-07T11:09:01.270Z,101733.31
2023-05-07T11:10:03.732Z,101732.91
2023-05-07T11:11:02.208Z,101726.6
2023-05-07T11:12:02.529Z,101727.91
2023-05-07T11:13:03.195Z,101726.42
2023-05-07T11:14:03.414Z,101728.16
2023-05-07T11:15:08.793Z,101725.43
2023-05-07T11:17:10.538Z,101727.25
2023-05-07T11:18:10.621Z,101721.98
2023-05-07T11:19:10.557Z,101724.59
2023-05-07T11:20:11.430Z,101723.52
2023-05-07T11:21:11.592Z,101720.2
2023-05-07T11:24:13.908Z,101724.77
2023-05-07T11:26:17.288Z,101723.58
2023-05-07T11:28:21.532Z,101731.67
2023-05-07T11:29:23.524Z,101727.61
2023-05-07T11:30:23.137Z,101725.67
2023-05-07T11:31:24.798Z,101723.49
2023-05-07T11:33:28.986Z,101726.17
2023-05-07T11:34:28.464Z,101725.25
2023-05-07T11:35:29.098Z,101724.58
2023-05-07T11:37:33.329Z,101725.8
2023-05-07T11:39:36.704Z,101725.28
2023-05-07T11:41:41.931Z,101726.09
2023-05-07T11:42:41.445Z,101725.62
2023-05-07T11:44:47.073Z,101726.88
2023-05-07T11:45:47.554Z,101726.11
2023-05-07T11:46:46.576Z,101726.49
2023-05-07T11:47:47.344Z,101722.09
2023-05-07T11:48:46.890Z,101725.8
2023-05-07T11:49:51.007Z,101726.3
2023-05-07T11:51:02.571Z,101728.08
2023-05-07T11:51:51.726Z,101730.06
2023-05-07T11:52:55.341Z,101719.52
2023-05-07T11:53:54.326Z,101718
2023-05-07T11:55:00.355Z,101719.02
2023-05-07T11:55:58.424Z,101724.72
2023-05-07T11:56:58.868Z,101717.17
2023-05-07T11:57:59.557Z,101720.42
2023-05-07T11:58:59.987Z,101721.45
2023-05-07T12:00:02.451Z,101717.02
2023-05-07T12:01:01.015Z,101718.23
2023-05-07T12:02:01.442Z,101718.41
2023-05-07T12:03:08.528Z,101718.79
2023-05-07T12:04:04.783Z,101716.75
2023-05-07T12:05:03.394Z,101716.14
2023-05-07T12:06:04.145Z,101711.54
2023-05-07T12:07:04.031Z,101712.78
2023-05-07T12:08:04.443Z,101714.16
2023-05-07T12:09:05.263Z,101715.5
2023-05-07T12:10:07.999Z,101715.48
2023-05-07T12:11:09.169Z,101712.08
2023-05-07T12:12:07.633Z,101712.96
2023-05-07T12:14:12.395Z,101713.23
2023-05-07T12:15:12.153Z,101715.5